createdAt,value
2019-03-27T00:00:45.865Z,9.40
2019-03-27T00:03:25.795Z,8.90
2019-03-27T00:05:57.976Z,8.97
2019-03-27T00:08:29.167Z,7.87
2019-03-27T00:11:03.801Z,7.87
2019-03-27T00:13:41.844Z,7.47
2019-03-27T00:16:17.101Z,8.40
2019-03-27T00:18:48.231Z,8.10
2019-03-27T00:21:26.486Z,8.13
2019-03-27T00:23:57.736Z,8.03
2019-03-27T00:26:32.904Z,7.97
2019-03-27T00:29:04.141Z,8.10
2019-03-27T00:31:39.613Z,8.20
2019-03-27T00:34:16.689Z,9.07
2019-03-27T00:36:49.994Z,9.23
2019-03-27T00:39:23.040Z,8.70
2019-03-27T00:41:54.318Z,8.23
2019-03-27T00:44:25.442Z,9.27
2019-03-27T00:46:56.560Z,8.23
2019-03-27T00:49:27.751Z,8.33
2019-03-27T00:51:58.890Z,8.90
2019-03-27T00:54:33.071Z,9.10
2019-03-27T00:57:04.337Z,9.37
2019-03-27T00:59:35.387Z,8.57
2019-03-27T01:02:06.572Z,8.70
2019-03-27T01:04:37.697Z,8.37
2019-03-27T01:07:10.912Z,9.70
2019-03-27T01:09:42.073Z,9.87
2019-03-27T01:12:13.301Z,11.33
2019-03-27T01:14:44.415Z,10.87
2019-03-27T01:17:15.554Z,10.77
2019-03-27T01:19:58.274Z,11.47
2019-03-27T01:22:29.431Z,11.27
2019-03-27T01:25:01.633Z,11.63
2019-03-27T01:27:49.730Z,11.77
2019-03-27T01:30:30.645Z,12.20
2019-03-27T01:33:13.658Z,11.70
2019-03-27T01:35:44.912Z,11.87
2019-03-27T01:38:20.924Z,11.93
2019-03-27T01:40:55.216Z,11.87
2019-03-27T01:43:26.515Z,12.90
2019-03-27T01:46:09.128Z,12.90
2019-03-27T01:48:40.312Z,12.20
2019-03-27T01:51:11.410Z,12.97
2019-03-27T01:53:42.459Z,12.43
2019-03-27T01:56:13.867Z,13.20
2019-03-27T01:58:45.034Z,12.73
2019-03-27T02:01:21.274Z,13.10
2019-03-27T02:03:52.457Z,13.67
2019-03-27T02:06:29.918Z,12.47
2019-03-27T02:09:01.072Z,14.17
2019-03-27T02:11:32.595Z,12.90
2019-03-27T02:14:03.830Z,13.53
2019-03-27T02:16:34.946Z,13.40
2019-03-27T02:19:06.083Z,13.57
2019-03-27T02:21:37.300Z,14.03
2019-03-27T02:24:08.413Z,13.83
2019-03-27T02:26:39.606Z,13.73
2019-03-27T02:29:24.144Z,14.07
2019-03-27T02:31:55.376Z,12.47
2019-03-27T02:34:26.412Z,12.03
2019-03-27T02:37:06.858Z,11.23
2019-03-27T02:39:38.026Z,11.80
2019-03-27T02:42:16.271Z,12.90
2019-03-27T02:44:47.489Z,11.83
2019-03-27T02:47:19.904Z,12.67
2019-03-27T02:49:55.371Z,12.60
2019-03-27T02:52:26.516Z,12.67
2019-03-27T02:54:59.724Z,12.83
2019-03-27T02:57:31.025Z,12.80
2019-03-27T03:00:02.309Z,13.53
2019-03-27T03:02:33.872Z,13.23
2019-03-27T03:05:06.165Z,13.07
2019-03-27T03:07:37.624Z,13.40
2019-03-27T03:10:10.379Z,14.17
2019-03-27T03:12:41.471Z,13.90
2019-03-27T03:15:14.514Z,14.90
2019-03-27T03:17:45.633Z,15.80
2019-03-27T03:20:16.786Z,17.23
2019-03-27T03:22:47.994Z,15.13
2019-03-27T03:25:19.114Z,16.93
2019-03-27T03:27:50.270Z,16.77
2019-03-27T03:30:26.951Z,17.53
2019-03-27T03:32:58.066Z,15.83
2019-03-27T03:35:29.222Z,17.47
2019-03-27T03:38:11.326Z,16.37
2019-03-27T03:40:42.524Z,16.00
2019-03-27T03:43:13.648Z,16.63
2019-03-27T03:45:50.115Z,16.90
2019-03-27T03:48:21.261Z,17.00
2019-03-27T03:51:04.439Z,15.97
2019-03-27T03:53:47.425Z,16.77
2019-03-27T03:56:19.016Z,16.13
2019-03-27T03:58:51.357Z,17.10
2019-03-27T04:01:23.630Z,17.17
2019-03-27T04:03:56.763Z,16.60
2019-03-27T04:06:27.897Z,17.00
2019-03-27T04:08:59.063Z,16.50
2019-03-27T04:11:30.202Z,16.20
2019-03-27T04:14:01.348Z,17.10
2019-03-27T04:16:32.442Z,16.67
2019-03-27T04:19:04.635Z,17.07
2019-03-27T04:21:35.897Z,16.10
2019-03-27T04:24:13.893Z,16.10
2019-03-27T04:26:50.123Z,17.43
2019-03-27T04:29:21.253Z,17.43
2019-03-27T04:31:52.714Z,17.77
2019-03-27T04:34:23.882Z,17.30
2019-03-27T04:37:00.014Z,16.67
2019-03-27T04:39:31.060Z,17.47
2019-03-27T04:42:02.350Z,17.97
2019-03-27T04:44:33.500Z,17.77
2019-03-27T04:47:04.763Z,19.27
2019-03-27T04:49:35.917Z,17.60
2019-03-27T04:52:07.207Z,18.77
2019-03-27T04:54:38.357Z,19.20
2019-03-27T04:57:10.579Z,18.10
2019-03-27T04:59:42.810Z,17.20
2019-03-27T05:02:21.368Z,17.77
2019-03-27T05:04:52.921Z,19.00
2019-03-27T05:07:24.322Z,19.43
2019-03-27T05:09:56.469Z,18.80
2019-03-27T05:12:27.628Z,17.90
2019-03-27T05:15:13.068Z,17.90
2019-03-27T05:17:46.316Z,18.67
2019-03-27T05:20:22.767Z,18.37
2019-03-27T05:22:54.953Z,18.27
2019-03-27T05:25:32.563Z,18.27
2019-03-27T05:28:03.841Z,18.57
2019-03-27T05:30:37.063Z,18.73
2019-03-27T05:33:08.217Z,18.47
2019-03-27T05:35:41.823Z,18.77
2019-03-27T05:38:14.061Z,18.80
2019-03-27T05:40:45.169Z,18.10
2019-03-27T05:43:16.292Z,19.20
2019-03-27T05:46:06.194Z,19.57
2019-03-27T05:48:37.334Z,18.77
2019-03-27T05:51:08.535Z,19.33
2019-03-27T05:53:52.891Z,19.97
2019-03-27T05:56:26.104Z,19.77
2019-03-27T05:59:00.285Z,19.73
2019-03-27T06:01:31.622Z,19.30
2019-03-27T06:04:03.813Z,18.80
2019-03-27T06:06:35.176Z,19.07
2019-03-27T06:09:07.360Z,20.40
2019-03-27T06:11:42.871Z,19.67
2019-03-27T06:14:16.055Z,20.30
2019-03-27T06:16:47.307Z,19.27
2019-03-27T06:19:21.463Z,20.03
2019-03-27T06:22:00.168Z,19.27
2019-03-27T06:24:33.401Z,21.40
2019-03-27T06:27:04.684Z,19.33
2019-03-27T06:29:35.955Z,18.60
2019-03-27T06:32:07.208Z,18.60
2019-03-27T06:34:38.411Z,18.13
2019-03-27T06:37:09.492Z,19.07
2019-03-27T06:39:42.686Z,19.77
2019-03-27T06:42:19.799Z,19.07
2019-03-27T06:44:50.974Z,20.30
2019-03-27T06:47:25.782Z,20.63
2019-03-27T06:49:57.011Z,20.47
2019-03-27T06:52:28.317Z,20.63
2019-03-27T06:54:59.325Z,20.10
2019-03-27T06:57:37.550Z,20.67
2019-03-27T07:00:09.687Z,22.20
2019-03-27T07:02:40.958Z,20.83
2019-03-27T07:05:12.379Z,23.57
2019-03-27T07:07:43.589Z,19.87
2019-03-27T07:10:24.029Z,21.43
2019-03-27T07:12:58.645Z,20.37
2019-03-27T07:15:29.867Z,21.30
2019-03-27T07:18:01.091Z,20.50
2019-03-27T07:20:32.390Z,21.57
2019-03-27T07:23:03.552Z,20.83
2019-03-27T07:25:37.867Z,22.47
2019-03-27T07:28:14.457Z,21.97
2019-03-27T07:30:46.643Z,23.07
2019-03-27T07:33:18.891Z,23.13
2019-03-27T07:35:55.944Z,22.93
2019-03-27T07:38:27.336Z,21.80
2019-03-27T07:40:59.592Z,22.83
2019-03-27T07:43:31.712Z,22.53
2019-03-27T07:46:03.909Z,21.73
2019-03-27T07:48:35.153Z,22.27
2019-03-27T07:51:09.462Z,23.50
2019-03-27T07:53:41.813Z,22.70
2019-03-27T07:56:13.177Z,22.03
2019-03-27T07:58:44.342Z,23.37
2019-03-27T08:01:16.488Z,21.90
2019-03-27T08:03:47.684Z,23.67
2019-03-27T08:06:19.799Z,23.70
2019-03-27T08:08:51.005Z,23.33
2019-03-27T08:11:32.625Z,23.27
2019-03-27T08:14:03.903Z,22.20
2019-03-27T08:16:35.104Z,24.37
2019-03-27T08:19:07.765Z,22.53
2019-03-27T08:21:51.584Z,23.80
2019-03-27T08:24:24.724Z,24.17
2019-03-27T08:26:55.848Z,25.00
2019-03-27T08:29:28.105Z,23.23
2019-03-27T08:31:59.325Z,23.13
2019-03-27T08:34:32.458Z,23.93
2019-03-27T08:37:03.707Z,26.13
2019-03-27T08:39:34.932Z,24.47
2019-03-27T08:42:08.050Z,26.77
2019-03-27T08:44:40.298Z,24.37
2019-03-27T08:47:11.440Z,26.13
2019-03-27T08:49:42.690Z,27.27
2019-03-27T08:52:14.153Z,25.90
2019-03-27T08:54:45.495Z,22.43
2019-03-27T08:57:17.811Z,21.23
2019-03-27T08:59:54.483Z,20.47
2019-03-27T09:02:34.434Z,16.17
2019-03-27T09:05:06.362Z,17.13
2019-03-27T09:07:37.603Z,20.37
2019-03-27T09:10:09.275Z,21.40
2019-03-27T09:13:11.220Z,21.27
2019-03-27T09:15:42.683Z,21.70
2019-03-27T09:18:17.144Z,24.20
2019-03-27T09:20:48.424Z,16.77
2019-03-27T09:23:19.909Z,15.73
2019-03-27T09:25:51.826Z,16.13
2019-03-27T09:28:23.173Z,13.90
2019-03-27T09:30:54.984Z,11.77
2019-03-27T09:33:26.356Z,11.27
2019-03-27T09:35:57.810Z,12.00
2019-03-27T09:38:29.140Z,9.97
2019-03-27T09:41:00.598Z,9.67
2019-03-27T09:43:31.954Z,7.07
2019-03-27T09:46:05.069Z,7.20
2019-03-27T09:48:36.355Z,7.27
2019-03-27T09:51:07.793Z,7.17
2019-03-27T09:53:39.532Z,5.97
2019-03-27T09:56:19.033Z,7.07
2019-03-27T09:58:44.913Z,6.87
2019-03-27T10:01:25.827Z,6.70
2019-03-27T10:03:59.153Z,6.90
2019-03-27T10:06:41.935Z,6.07
2019-03-27T10:09:24.433Z,5.03
2019-03-27T10:12:02.250Z,5.77
2019-03-27T10:14:33.491Z,6.63
2019-03-27T10:17:15.251Z,6.17
2019-03-27T10:20:02.904Z,7.20
2019-03-27T10:22:26.674Z,7.20
2019-03-27T10:25:08.613Z,7.73
2019-03-27T10:27:48.851Z,7.47
2019-03-27T10:30:21.141Z,7.50
2019-03-27T10:32:58.215Z,6.00
2019-03-27T10:35:29.470Z,6.63
2019-03-27T10:38:08.773Z,5.37
2019-03-27T10:40:40.011Z,4.53
2019-03-27T10:43:11.292Z,5.27
2019-03-27T10:45:48.305Z,5.00
2019-03-27T10:48:19.503Z,5.87
2019-03-27T10:50:56.921Z,7.30
2019-03-27T10:53:30.068Z,6.67
2019-03-27T10:56:12.152Z,5.77
2019-03-27T10:58:49.463Z,6.00
2019-03-27T11:01:20.650Z,7.17
2019-03-27T11:03:52.808Z,8.10
2019-03-27T11:06:33.095Z,7.33
2019-03-27T11:09:07.191Z,4.93
2019-03-27T11:11:38.695Z,4.67
2019-03-27T11:14:09.832Z,4.83
2019-03-27T11:16:45.131Z,5.93
2019-03-27T11:19:33.433Z,6.57
2019-03-27T11:22:04.054Z,6.93
2019-03-27T11:24:35.222Z,6.87
2019-03-27T11:27:06.980Z,6.67
2019-03-27T11:29:44.395Z,6.70
2019-03-27T11:32:27.067Z,7.23
2019-03-27T11:34:58.321Z,6.57
2019-03-27T11:37:32.636Z,6.07
2019-03-27T11:40:04.387Z,7.37
2019-03-27T11:42:35.636Z,6.97
2019-03-27T11:45:07.321Z,6.23
2019-03-27T11:47:38.476Z,7.03
2019-03-27T11:50:13.107Z,5.87
2019-03-27T11:52:56.559Z,5.93
2019-03-27T11:55:27.759Z,4.87
2019-03-27T11:57:59.202Z,4.93
2019-03-27T12:00:30.453Z,5.30
2019-03-27T12:03:01.620Z,5.50
2019-03-27T12:05:32.749Z,7.13
2019-03-27T12:08:05.104Z,4.60
2019-03-27T12:10:45.405Z,4.47
2019-03-27T12:13:16.631Z,4.87
2019-03-27T12:16:07.185Z,5.67
2019-03-27T12:18:38.306Z,5.27
2019-03-27T12:21:09.420Z,4.97
2019-03-27T12:23:40.458Z,5.73
2019-03-27T12:26:11.579Z,5.00
2019-03-27T12:28:42.819Z,4.70
2019-03-27T12:31:13.959Z,5.07
2019-03-27T12:33:46.042Z,5.10
2019-03-27T12:36:17.278Z,5.60
2019-03-27T12:38:48.433Z,5.37
2019-03-27T12:41:25.613Z,5.20
2019-03-27T12:43:56.672Z,4.80
2019-03-27T12:46:27.820Z,5.07
2019-03-27T12:48:59.052Z,5.43
2019-03-27T12:51:30.203Z,4.73
2019-03-27T12:54:12.672Z,4.63
2019-03-27T12:56:49.643Z,4.33
2019-03-27T12:59:20.884Z,4.20
2019-03-27T13:01:53.178Z,3.83
2019-03-27T13:04:24.320Z,4.17
2019-03-27T13:06:55.566Z,4.10
2019-03-27T13:09:26.992Z,4.40
2019-03-27T13:12:00.467Z,4.73
2019-03-27T13:14:33.610Z,5.27
2019-03-27T13:17:04.827Z,4.90
2019-03-27T13:19:42.887Z,5.40
2019-03-27T13:22:20.720Z,5.60
2019-03-27T13:24:51.915Z,4.77
2019-03-27T13:27:23.103Z,4.63
2019-03-27T13:29:57.470Z,5.30
2019-03-27T13:32:28.649Z,5.17
2019-03-27T13:35:06.870Z,4.53
2019-03-27T13:37:43.324Z,4.93
2019-03-27T13:40:30.831Z,5.13
2019-03-27T13:43:02.072Z,5.10
2019-03-27T13:45:35.185Z,4.77
2019-03-27T13:48:10.438Z,5.37
2019-03-27T13:50:45.682Z,5.03
2019-03-27T13:53:17.980Z,4.70
2019-03-27T13:55:49.178Z,5.27
2019-03-27T13:58:23.796Z,5.13
2019-03-27T14:00:55.057Z,5.60
2019-03-27T14:03:27.381Z,4.97
2019-03-27T14:05:58.560Z,4.40
2019-03-27T14:08:33.075Z,4.33
2019-03-27T14:11:04.352Z,4.63
2019-03-27T14:13:43.674Z,4.07
2019-03-27T14:16:14.891Z,5.00
2019-03-27T14:18:48.787Z,4.67
2019-03-27T14:21:24.909Z,4.03
2019-03-27T14:23:57.057Z,4.93
2019-03-27T14:26:44.047Z,5.57
2019-03-27T14:29:09.938Z,4.67
2019-03-27T14:31:41.233Z,5.27
2019-03-27T14:34:23.765Z,5.07
2019-03-27T14:37:00.048Z,4.63
2019-03-27T14:39:31.321Z,4.80
2019-03-27T14:42:09.758Z,4.73
2019-03-27T14:44:40.897Z,4.33
2019-03-27T14:47:12.081Z,4.57
2019-03-27T14:49:49.967Z,4.90
2019-03-27T14:52:26.371Z,5.07
2019-03-27T14:55:02.912Z,4.80
2019-03-27T14:57:38.169Z,4.80
2019-03-27T15:00:10.190Z,5.40
2019-03-27T15:02:52.656Z,5.50
2019-03-27T15:05:23.930Z,5.50
2019-03-27T15:08:00.128Z,5.23
2019-03-27T15:10:42.483Z,5.33
2019-03-27T15:13:15.347Z,5.53
2019-03-27T15:15:50.990Z,5.50
2019-03-27T15:18:22.198Z,5.43
2019-03-27T15:20:59.769Z,5.27
2019-03-27T15:23:34.813Z,5.90
2019-03-27T15:26:11.148Z,5.53
2019-03-27T15:28:42.437Z,5.90
2019-03-27T15:31:20.304Z,5.83
2019-03-27T15:33:46.507Z,5.27
2019-03-27T15:36:18.704Z,4.90
2019-03-27T15:38:49.816Z,4.90
2019-03-27T15:41:21.992Z,5.10
2019-03-27T15:44:05.659Z,6.00
2019-03-27T15:46:42.244Z,6.27
2019-03-27T15:49:13.367Z,5.40
2019-03-27T15:51:50.575Z,4.87
2019-03-27T15:54:25.621Z,4.70
2019-03-27T15:56:56.706Z,5.20
2019-03-27T15:59:27.896Z,5.10
2019-03-27T16:02:01.139Z,6.30
2019-03-27T16:04:32.408Z,6.70
2019-03-27T16:07:26.783Z,7.83
2019-03-27T16:09:58.103Z,6.07
2019-03-27T16:12:36.122Z,5.93
2019-03-27T16:15:11.087Z,5.57
2019-03-27T16:17:42.416Z,5.33
2019-03-27T16:20:13.657Z,5.60
2019-03-27T16:22:50.962Z,5.50
2019-03-27T16:25:19.087Z,6.27
2019-03-27T16:27:59.309Z,5.50
2019-03-27T16:30:30.662Z,7.47
2019-03-27T16:33:10.025Z,7.47
2019-03-27T16:35:50.972Z,8.10
2019-03-27T16:38:22.203Z,8.07
2019-03-27T16:40:53.383Z,6.67
2019-03-27T16:43:26.715Z,5.93
2019-03-27T16:45:59.988Z,5.90
2019-03-27T16:48:33.418Z,5.20
2019-03-27T16:51:04.854Z,6.27
2019-03-27T16:53:54.227Z,6.17
2019-03-27T16:56:25.961Z,5.83
2019-03-27T16:59:06.319Z,6.33
2019-03-27T17:01:37.616Z,5.60
2019-03-27T17:04:08.956Z,5.77
2019-03-27T17:06:40.093Z,5.40
2019-03-27T17:09:11.415Z,5.73
2019-03-27T17:11:43.684Z,5.60
2019-03-27T17:14:26.824Z,5.80
2019-03-27T17:16:58.155Z,5.67
2019-03-27T17:19:30.434Z,6.03
2019-03-27T17:22:18.539Z,6.37
2019-03-27T17:24:56.069Z,5.97
2019-03-27T17:27:26.714Z,5.47
2019-03-27T17:29:58.068Z,5.97
2019-03-27T17:32:31.392Z,5.90
2019-03-27T17:35:02.684Z,6.20
2019-03-27T17:37:34.888Z,6.53
2019-03-27T17:40:07.474Z,5.93
2019-03-27T17:42:38.695Z,6.20
2019-03-27T17:45:18.164Z,6.13
2019-03-27T17:47:49.451Z,6.43
2019-03-27T17:50:22.739Z,6.60
2019-03-27T17:52:53.993Z,6.40
2019-03-27T17:55:25.333Z,5.90
2019-03-27T17:57:57.643Z,7.10
2019-03-27T18:00:51.044Z,7.57
2019-03-27T18:03:22.569Z,7.47
2019-03-27T18:06:09.217Z,7.30
2019-03-27T18:08:40.543Z,7.40
2019-03-27T18:11:19.160Z,8.07
2019-03-27T18:13:53.490Z,7.07
2019-03-27T18:16:24.897Z,7.20
2019-03-27T18:18:58.410Z,7.60
2019-03-27T18:21:29.616Z,8.03
2019-03-27T18:24:01.922Z,8.23
2019-03-27T18:26:33.618Z,7.27
2019-03-27T18:29:05.216Z,8.10
2019-03-27T18:31:41.537Z,8.10
2019-03-27T18:34:17.766Z,7.93
2019-03-27T18:36:58.089Z,8.03
2019-03-27T18:39:29.237Z,8.00
2019-03-27T18:42:01.453Z,8.23
2019-03-27T18:44:34.687Z,7.70
2019-03-27T18:47:05.887Z,8.10
2019-03-27T18:49:39.177Z,8.10
2019-03-27T18:52:10.395Z,8.47
2019-03-27T18:54:41.604Z,8.60
2019-03-27T18:57:12.838Z,8.57
2019-03-27T18:59:53.222Z,8.90
2019-03-27T19:02:25.417Z,8.87
2019-03-27T19:04:57.662Z,8.37
2019-03-27T19:07:28.917Z,8.13
2019-03-27T19:10:04.150Z,8.30
2019-03-27T19:12:35.742Z,7.97
2019-03-27T19:15:07.240Z,7.80
2019-03-27T19:17:39.688Z,8.20
2019-03-27T19:20:11.025Z,8.67
2019-03-27T19:22:42.361Z,8.50
2019-03-27T19:25:13.719Z,8.30
2019-03-27T19:27:44.982Z,8.27
2019-03-27T19:30:16.533Z,8.50
2019-03-27T19:32:47.888Z,8.77
2019-03-27T19:35:19.441Z,8.70
2019-03-27T19:37:52.746Z,8.57
2019-03-27T19:40:24.059Z,8.93
2019-03-27T19:42:55.308Z,9.63
2019-03-27T19:45:30.780Z,8.90
2019-03-27T19:48:05.369Z,8.73
2019-03-27T19:50:36.772Z,9.13
2019-03-27T19:53:19.083Z,9.23
2019-03-27T19:55:50.569Z,9.10
2019-03-27T19:58:26.082Z,9.70
2019-03-27T20:00:57.393Z,9.30
2019-03-27T20:03:29.508Z,9.40
2019-03-27T20:06:01.606Z,9.03
2019-03-27T20:08:32.882Z,9.13
2019-03-27T20:11:04.238Z,9.50
2019-03-27T20:13:35.446Z,9.57
2019-03-27T20:16:06.718Z,9.50
2019-03-27T20:18:45.720Z,10.07
2019-03-27T20:21:17.111Z,9.70
2019-03-27T20:23:51.599Z,9.80
2019-03-27T20:26:26.578Z,10.13
2019-03-27T20:28:57.738Z,10.30
2019-03-27T20:31:31.012Z,11.30
2019-03-27T20:34:02.559Z,11.50
2019-03-27T20:36:38.893Z,10.60
2019-03-27T20:39:11.260Z,10.83
2019-03-27T20:41:48.655Z,11.27
2019-03-27T20:44:19.807Z,10.73
2019-03-27T20:46:56.220Z,11.33
2019-03-27T20:49:29.449Z,10.70
2019-03-27T20:52:12.506Z,10.57
2019-03-27T20:54:54.459Z,11.17
2019-03-27T20:57:23.099Z,11.40
2019-03-27T20:59:56.803Z,10.43
2019-03-27T21:02:33.706Z,8.63
2019-03-27T21:05:11.396Z,8.90
2019-03-27T21:07:54.506Z,8.70
2019-03-27T21:10:25.703Z,8.73
2019-03-27T21:13:01.243Z,8.43
2019-03-27T21:15:32.585Z,8.87
2019-03-27T21:18:10.374Z,9.07
2019-03-27T21:20:42.510Z,8.40
2019-03-27T21:23:23.756Z,8.70
2019-03-27T21:25:55.004Z,8.93
2019-03-27T21:28:31.343Z,9.77
2019-03-27T21:31:11.577Z,8.97
2019-03-27T21:33:42.900Z,8.30
2019-03-27T21:36:15.206Z,8.60
2019-03-27T21:38:56.186Z,9.70
2019-03-27T21:41:33.382Z,9.50
2019-03-27T21:44:15.277Z,9.70
2019-03-27T21:46:51.071Z,9.90
2019-03-27T21:49:22.423Z,9.90
2019-03-27T21:51:56.692Z,9.93
2019-03-27T21:54:28.044Z,9.37
2019-03-27T21:57:07.054Z,10.30
2019-03-27T21:59:43.803Z,10.10
2019-03-27T22:02:16.201Z,9.70
2019-03-27T22:04:47.909Z,9.03
2019-03-27T22:07:19.543Z,9.37
2019-03-27T22:09:51.738Z,9.73
2019-03-27T22:12:29.161Z,9.60
2019-03-27T22:15:07.788Z,9.67
2019-03-27T22:17:39.059Z,10.10
2019-03-27T22:20:10.424Z,9.67
2019-03-27T22:22:44.275Z,10.10
2019-03-27T22:25:15.955Z,10.33
2019-03-27T22:27:47.385Z,9.93
2019-03-27T22:30:18.758Z,10.70
2019-03-27T22:32:55.184Z,10.63
2019-03-27T22:35:26.811Z,10.23
2019-03-27T22:38:00.209Z,10.67
2019-03-27T22:40:31.505Z,10.53
2019-03-27T22:43:04.885Z,11.03
2019-03-27T22:45:36.541Z,11.27
2019-03-27T22:48:07.833Z,11.90
2019-03-27T22:50:48.506Z,12.17
2019-03-27T22:53:25.473Z,12.23
2019-03-27T22:55:56.878Z,12.07
2019-03-27T22:58:47.285Z,11.60
2019-03-27T23:01:18.515Z,12.70
2019-03-27T23:03:53.306Z,11.43
2019-03-27T23:06:24.593Z,11.87
2019-03-27T23:08:58.643Z,10.37
2019-03-27T23:11:30.134Z,11.43
2019-03-27T23:14:01.303Z,11.77
2019-03-27T23:16:34.756Z,11.43
2019-03-27T23:19:11.812Z,11.10
2019-03-27T23:21:43.294Z,11.53
2019-03-27T23:24:14.695Z,12.07
2019-03-27T23:26:45.985Z,10.47
2019-03-27T23:29:17.704Z,12.00
2019-03-27T23:31:49.145Z,10.70
2019-03-27T23:34:20.847Z,12.00
2019-03-27T23:36:58.132Z,11.20
2019-03-27T23:39:33.545Z,10.60
2019-03-27T23:42:05.462Z,11.23
2019-03-27T23:44:38.950Z,10.97
2019-03-27T23:47:21.939Z,11.17
2019-03-27T23:49:53.113Z,10.90
2019-03-27T23:52:30.178Z,10.90
2019-03-27T23:55:08.333Z,11.40
2019-03-27T23:57:39.645Z,10.97
